KFET/FET METAR and TAF weather

Enter ICAO airport designator
Station Type Date Time Source
KFET METAR 2019/04/22 17:55 UTC NOAA

KFET 221755Z AUTO 31013G18KT 10SM OVC010 12/09 A3001 RMK AO2 T01170089 10136 20113


Station Type Date Time Source
KFET Decoded METAR 2019/04/22 17:55 UTC NOAA

Fremont Municipal Airport, NE, United States (KFET) 41-27N 096-31W
Apr 22, 2019 - 01:55 PM EDT / 2019.04.22 1755 UTC
Wind: from the NW (310 degrees) at 15 MPH (13 KT) gusting to 21 MPH (18 KT):0
Visibility: 10 mile(s):0
Sky conditions: overcast
Temperature: 53.1 F (11.7 C)
Dew Point: 48.0 F (8.9 C)
Relative Humidity: 82%
Pressure (altimeter): 30.01 in. Hg (1016 hPa)
ob: KFET 221755Z AUTO 31013G18KT 10SM OVC010 12/09 A3001 RMK AO2 T01170089 10136 20113
cycle: 18

Station Type Date Time Source
KFET TAF UTC NOAA

Error!

Example: see airport list